createdAt,value
2017-11-28T00:01:28.499Z,47
2017-11-28T00:11:29.573Z,46
2017-11-28T00:21:28.107Z,46
2017-11-28T00:31:28.622Z,48
2017-11-28T00:41:30.683Z,46
2017-11-28T00:51:28.371Z,47
2017-11-28T01:01:30.847Z,45
2017-11-28T01:11:29.397Z,46
2017-11-28T01:21:29.670Z,46
2017-11-28T01:31:27.994Z,48
2017-11-28T01:41:27.636Z,49
2017-11-28T01:51:28.066Z,47
2017-11-28T02:01:28.215Z,46
2017-11-28T02:11:29.467Z,45
2017-11-28T02:21:29.602Z,46
2017-11-28T02:31:29.255Z,47
2017-11-28T02:41:27.594Z,46
2017-11-28T02:51:28.350Z,47
2017-11-28T03:01:28.055Z,48
2017-11-28T03:11:27.706Z,46
2017-11-28T03:21:27.079Z,46
2017-11-28T03:31:27.808Z,48
2017-11-28T03:41:29.579Z,45
2017-11-28T03:51:29.526Z,46
2017-11-28T04:01:28.315Z,48
2017-11-28T04:11:27.517Z,47
2017-11-28T04:21:27.860Z,48
2017-11-28T04:31:28.270Z,48
2017-11-28T04:41:28.497Z,48
2017-11-28T04:51:27.833Z,46
2017-11-28T05:01:28.038Z,48
2017-11-28T05:11:29.674Z,46
2017-11-28T05:21:27.300Z,46
2017-11-28T05:31:26.967Z,48
2017-11-28T05:41:28.043Z,48
2017-11-28T05:51:27.789Z,46
2017-11-28T06:01:30.121Z,45
2017-11-28T06:11:30.318Z,45
2017-11-28T06:21:28.486Z,48
2017-11-28T06:31:28.064Z,48
2017-11-28T06:41:27.990Z,47
2017-11-28T06:51:27.218Z,46
2017-11-28T07:01:28.437Z,46
2017-11-28T07:11:28.958Z,45
2017-11-28T07:21:27.878Z,47
2017-11-28T07:31:27.602Z,47
2017-11-28T07:41:28.533Z,47
2017-11-28T07:51:27.915Z,48
2017-11-28T08:01:27.306Z,47
2017-11-28T08:11:27.672Z,48
2017-11-28T08:21:27.280Z,47
2017-11-28T08:31:27.591Z,47
2017-11-28T08:41:28.252Z,47
2017-11-28T08:51:27.616Z,46
2017-11-28T09:01:28.391Z,46
2017-11-28T09:11:28.309Z,45
2017-11-28T09:21:27.621Z,45
2017-11-28T09:31:28.022Z,47
2017-11-28T09:41:28.562Z,45
2017-11-28T09:51:29.631Z,44
2017-11-28T10:01:27.737Z,44
2017-11-28T10:11:28.986Z,45
2017-11-28T10:21:27.662Z,46
2017-11-28T10:31:29.018Z,45
2017-11-28T10:41:27.103Z,44
2017-11-28T10:51:29.167Z,45
2017-11-28T11:01:28.688Z,44
2017-11-28T11:11:28.137Z,46
2017-11-28T11:21:30.794Z,44
2017-11-28T11:31:28.910Z,45
2017-11-28T11:41:27.827Z,46
2017-11-28T11:51:28.549Z,45
2017-11-28T12:01:28.736Z,44
2017-11-28T12:11:28.447Z,45
2017-11-28T12:21:30.807Z,44
2017-11-28T12:31:29.898Z,45
2017-11-28T12:41:27.538Z,44
2017-11-28T12:51:28.240Z,46
2017-11-28T13:01:27.742Z,45
2017-11-28T13:11:29.041Z,43
2017-11-28T13:21:27.379Z,43
2017-11-28T13:31:28.657Z,44
2017-11-28T13:41:29.516Z,44
2017-11-28T13:51:27.935Z,44
2017-11-28T14:01:27.325Z,46
2017-11-28T14:11:28.982Z,42
2017-11-28T14:21:27.990Z,45
2017-11-28T14:31:27.686Z,46
2017-11-28T14:41:29.300Z,44
2017-11-28T14:51:29.265Z,43
2017-11-28T15:01:28.407Z,44
2017-11-28T15:11:28.370Z,44
2017-11-28T15:21:28.340Z,46
2017-11-28T15:31:28.372Z,46
2017-11-28T15:41:27.535Z,44
2017-11-28T15:51:29.180Z,44
2017-11-28T16:01:28.536Z,44
2017-11-28T16:11:27.758Z,43
2017-11-28T16:21:28.524Z,45
2017-11-28T16:31:27.733Z,44
2017-11-28T16:41:28.440Z,44
2017-11-28T16:51:27.581Z,44
2017-11-28T17:01:28.950Z,43
2017-11-28T17:11:28.579Z,45
2017-11-28T17:21:28.225Z,45
2017-11-28T17:31:27.628Z,44
2017-11-28T17:41:30.085Z,43
2017-11-28T17:51:27.755Z,44
2017-11-28T18:01:28.142Z,45
2017-11-28T18:11:27.676Z,46
2017-11-28T18:21:27.982Z,44
2017-11-28T18:31:27.136Z,44
2017-11-28T18:41:27.923Z,44
2017-11-28T18:51:27.705Z,45
2017-11-28T19:01:28.050Z,44
2017-11-28T19:11:27.171Z,45
2017-11-28T19:21:29.040Z,45
2017-11-28T19:31:29.678Z,44
2017-11-28T19:41:31.106Z,43
2017-11-28T19:51:28.170Z,45
2017-11-28T20:01:28.499Z,44
2017-11-28T20:11:29.309Z,44
2017-11-28T20:21:29.553Z,44
2017-11-28T20:31:27.911Z,44
2017-11-28T20:41:28.770Z,46
2017-11-28T20:51:29.841Z,44
2017-11-28T21:01:28.052Z,45
2017-11-28T21:11:29.948Z,44
2017-11-28T21:21:28.047Z,45
2017-11-28T21:31:28.714Z,44
2017-11-28T21:41:27.958Z,44
2017-11-28T21:51:27.946Z,45
2017-11-28T22:01:27.453Z,45
2017-11-28T22:11:28.733Z,46
2017-11-28T22:21:29.134Z,46
2017-11-28T22:31:27.275Z,45
2017-11-28T22:41:28.562Z,46
2017-11-28T22:51:27.962Z,46
2017-11-28T23:01:27.324Z,46
2017-11-28T23:11:27.414Z,46
2017-11-28T23:21:28.538Z,46
2017-11-28T23:31:28.925Z,45
2017-11-28T23:41:27.891Z,45
2017-11-28T23:51:28.475Z,46
